Time;durP1;ratioP1;P1;durP2;ratioP2;P2;SDS_P1;SDS_P2;PMS_P1;PMS_P2;Temp;Humidity;BMP_temperature;BMP_pressure;BME280_temperature;BME280_humidity;BME280_pressure;Samples;Min_cycle;Max_cycle;Signal;HPM_P1;HPM_P2
2022/10/12 00:00:17;;;;;;;17.13;7.75;;;8.90;99.90;;;;;;5110382;28;20455;-74
2022/10/12 00:02:42;;;;;;;16.58;7.85;;;8.80;99.90;;;;;;5104108;28;20016;-74
2022/10/12 00:05:08;;;;;;;18.33;8.10;;;8.80;99.90;;;;;;5101012;28;20482;-74
2022/10/12 00:07:34;;;;;;;20.00;7.53;;;8.80;99.90;;;;;;5108241;28;20027;-74
2022/10/12 00:10:00;;;;;;;23.08;7.53;;;8.80;99.90;;;;;;5111426;28;20027;-74
2022/10/12 00:12:25;;;;;;;19.52;7.72;;;8.80;99.90;;;;;;5107950;28;20455;-76
2022/10/12 00:14:51;;;;;;;16.77;7.00;;;8.80;99.90;;;;;;5093877;28;20020;-74
2022/10/12 00:17:17;;;;;;;14.77;7.05;;;8.70;99.90;;;;;;5109469;28;20391;-74
2022/10/12 00:19:42;;;;;;;16.10;7.07;;;8.70;99.90;;;;;;5108497;28;20020;-74
2022/10/12 00:22:08;;;;;;;13.68;6.95;;;8.70;99.90;;;;;;5090709;28;20027;-75
2022/10/12 00:24:33;;;;;;;21.40;7.60;;;8.60;99.90;;;;;;5109040;28;20547;-75
2022/10/12 00:26:59;;;;;;;17.90;7.22;;;8.60;99.90;;;;;;5101293;28;20024;-74
2022/10/12 00:29:25;;;;;;;17.17;6.50;;;8.60;99.90;;;;;;5107296;28;20031;-75
2022/10/12 00:31:50;;;;;;;16.10;7.32;;;8.60;99.90;;;;;;5111905;28;20022;-74
2022/10/12 00:34:17;;;;;;;17.25;7.47;;;8.60;99.90;;;;;;5104360;28;20031;-74
2022/10/12 00:36:43;;;;;;;18.83;7.97;;;8.50;99.90;;;;;;5109415;28;20150;-74
2022/10/12 00:39:09;;;;;;;15.85;7.28;;;8.50;99.90;;;;;;5109336;28;20095;-74
2022/10/12 00:41:39;;;;;;;19.70;7.05;;;8.50;99.90;;;;;;5103637;28;20020;-77
2022/10/12 00:44:39;;;;;;;15.90;6.82;;;8.40;99.90;;;;;;5087856;28;20035;-74
2022/10/12 00:47:27;;;;;;;15.80;7.30;;;8.40;99.90;;;;;;5097004;28;20048;-74
2022/10/12 00:50:04;;;;;;;13.70;6.95;;;8.30;99.90;;;;;;5089533;28;20169;-75
2022/10/12 00:52:43;;;;;;;14.00;6.05;;;8.30;99.90;;;;;;5110845;28;20133;-74
2022/10/12 00:55:12;;;;;;;17.80;6.93;;;8.30;99.90;;;;;;5111319;28;20119;-74
2022/10/12 00:57:38;;;;;;;17.38;7.00;;;8.30;99.90;;;;;;5110784;28;20169;-74
2022/10/12 01:00:07;;;;;;;15.88;6.97;;;8.20;99.90;;;;;;5097016;28;20123;-75
2022/10/12 01:02:35;;;;;;;14.85;6.93;;;8.20;99.90;;;;;;5104980;28;20024;-74
2022/10/12 01:05:01;;;;;;;16.25;6.82;;;8.20;99.90;;;;;;5105844;28;20012;-74
2022/10/12 01:07:27;;;;;;;18.92;7.07;;;8.20;99.90;;;;;;5110478;28;20031;-74
2022/10/12 01:09:52;;;;;;;16.35;6.95;;;8.10;99.90;;;;;;5106860;28;20031;-74
2022/10/12 01:12:19;;;;;;;15.70;6.88;;;8.10;99.90;;;;;;5105164;28;20032;-75
2022/10/12 01:14:44;;;;;;;17.30;7.07;;;8.10;99.90;;;;;;5108174;28;20024;-74
2022/10/12 01:17:31;;;;;;;16.15;6.78;;;8.00;99.90;;;;;;5107317;28;20617;-74
2022/10/12 01:20:18;;;;;;;16.73;7.45;;;8.00;99.90;;;;;;5110009;28;20059;-74
2022/10/12 01:23:03;;;;;;;15.30;7.13;;;8.00;99.90;;;;;;5110140;28;20084;-74
2022/10/12 01:25:41;;;;;;;13.75;6.43;;;7.90;99.90;;;;;;5098786;28;20706;-74
2022/10/12 01:28:30;;;;;;;15.77;6.50;;;7.90;99.90;;;;;;5100450;28;20098;-75
2022/10/12 01:31:07;;;;;;;20.05;6.82;;;7.80;99.90;;;;;;5111387;28;20473;-74
2022/10/12 01:33:40;;;;;;;19.42;7.22;;;7.80;99.90;;;;;;5110526;28;20730;-75
2022/10/12 01:36:10;;;;;;;14.85;6.75;;;7.80;99.90;;;;;;5105885;28;20031;-74
2022/10/12 01:38:59;;;;;;;19.90;7.05;;;7.80;99.90;;;;;;5109715;28;20019;-74
2022/10/12 01:41:35;;;;;;;16.88;7.22;;;7.80;99.90;;;;;;5109361;28;20039;-75
2022/10/12 01:44:01;;;;;;;14.75;6.88;;;7.80;99.90;;;;;;5105265;28;20020;-74
2022/10/12 01:46:27;;;;;;;16.08;6.60;;;7.70;99.90;;;;;;5108105;28;20028;-74
2022/10/12 01:48:56;;;;;;;21.45;7.50;;;7.70;99.90;;;;;;5110268;28;20028;-74
2022/10/12 01:51:51;;;;;;;14.32;6.82;;;7.70;99.90;;;;;;5110761;28;20055;-74
2022/10/12 01:54:54;;;;;;;20.42;6.93;;;7.70;99.90;;;;;;5105476;28;20103;-74
2022/10/12 01:57:41;;;;;;;16.35;7.18;;;7.70;99.90;;;;;;5096423;28;20035;-74
2022/10/12 02:00:14;;;;;;;19.48;6.82;;;7.70;99.90;;;;;;5092628;28;20025;-75
2022/10/12 02:02:39;;;;;;;22.33;7.40;;;7.60;99.90;;;;;;5107165;28;20099;-74
2022/10/12 02:05:28;;;;;;;15.60;6.75;;;7.60;99.90;;;;;;5108940;28;20071;-74
2022/10/12 02:08:16;;;;;;;14.20;6.43;;;7.60;99.90;;;;;;5102199;28;20027;-74
2022/10/12 02:10:50;;;;;;;12.02;5.75;;;7.60;99.90;;;;;;5102832;28;20023;-74
2022/10/12 02:13:19;;;;;;;13.32;5.82;;;7.60;99.90;;;;;;5109283;28;20019;-76
2022/10/12 02:15:46;;;;;;;15.25;6.75;;;7.50;99.90;;;;;;5107494;28;20043;-74
2022/10/12 02:18:16;;;;;;;17.52;6.47;;;7.50;99.90;;;;;;5100932;28;20039;-74
2022/10/12 02:20:43;;;;;;;15.88;6.13;;;7.50;99.90;;;;;;5107674;28;20409;-73
2022/10/12 02:23:10;;;;;;;15.75;6.90;;;7.50;99.90;;;;;;5109044;28;20020;-73
2022/10/12 02:25:35;;;;;;;13.32;6.15;;;7.50;99.90;;;;;;5111130;28;20266;-73
2022/10/12 02:28:14;;;;;;;16.50;6.20;;;7.40;99.90;;;;;;5113803;28;20016;-74
2022/10/12 02:31:00;;;;;;;14.25;6.30;;;7.40;99.90;;;;;;5114778;28;20031;-74
2022/10/12 02:33:52;;;;;;;12.32;6.30;;;7.40;99.90;;;;;;5113336;28;20077;-74
2022/10/12 02:36:29;;;;;;;18.92;6.75;;;7.30;99.90;;;;;;5102101;28;20028;-73
2022/10/12 02:39:04;;;;;;;10.73;5.80;;;7.30;99.90;;;;;;5107342;28;20035;-74
2022/10/12 02:41:36;;;;;;;13.73;6.20;;;7.30;99.90;;;;;;5094594;28;20036;-74
2022/10/12 02:44:07;;;;;;;14.05;6.60;;;7.30;99.90;;;;;;5103890;28;20035;-74
2022/10/12 02:46:34;;;;;;;15.02;6.85;;;7.30;99.90;;;;;;5106105;28;20088;-74
2022/10/12 02:49:02;;;;;;;14.10;6.57;;;7.30;99.90;;;;;;5112802;28;20273;-73
2022/10/12 02:51:29;;;;;;;16.50;6.63;;;7.30;99.90;;;;;;5104578;28;20016;-74
2022/10/12 02:53:55;;;;;;;14.82;6.05;;;7.30;99.90;;;;;;5102314;28;20028;-74
2022/10/12 02:56:22;;;;;;;19.33;6.93;;;7.30;99.90;;;;;;5113357;28;20040;-73
2022/10/12 02:58:48;;;;;;;12.15;6.07;;;7.20;99.90;;;;;;5112542;28;20395;-74
2022/10/12 03:01:15;;;;;;;15.80;5.90;;;7.20;99.90;;;;;;5111796;28;20355;-73
2022/10/12 03:03:42;;;;;;;12.63;6.60;;;7.20;99.90;;;;;;5103876;28;20429;-74
2022/10/12 03:06:08;;;;;;;14.48;6.85;;;7.20;99.90;;;;;;5098856;28;20089;-74
2022/10/12 03:08:34;;;;;;;14.93;6.47;;;7.20;99.90;;;;;;5104420;28;20039;-73
2022/10/12 03:11:01;;;;;;;12.45;5.93;;;7.20;99.90;;;;;;5102072;28;20032;-75
2022/10/12 03:13:27;;;;;;;15.43;6.18;;;7.20;99.90;;;;;;5110922;28;20024;-74
2022/10/12 03:15:52;;;;;;;13.68;6.20;;;7.20;99.90;;;;;;5103572;28;20036;-73
2022/10/12 03:18:19;;;;;;;20.00;7.35;;;7.20;99.90;;;;;;5104423;28;20111;-74
2022/10/12 03:20:47;;;;;;;10.80;5.97;;;7.10;99.90;;;;;;5100191;28;20719;-73
2022/10/12 03:23:13;;;;;;;11.60;6.07;;;7.20;99.90;;;;;;5097332;28;20118;-73
2022/10/12 03:25:40;;;;;;;15.30;6.10;;;7.10;99.90;;;;;;5112474;28;20065;-73
2022/10/12 03:28:06;;;;;;;12.18;5.93;;;7.10;99.90;;;;;;5111718;28;20468;-73
2022/10/12 03:30:31;;;;;;;14.40;6.38;;;7.10;99.90;;;;;;5112617;28;20069;-73
2022/10/12 03:32:57;;;;;;;11.05;6.15;;;7.20;99.90;;;;;;5112155;28;20027;-73
2022/10/12 03:35:22;;;;;;;16.08;6.45;;;7.20;99.90;;;;;;5112447;28;20031;-73
2022/10/12 03:37:48;;;;;;;16.42;6.68;;;7.20;99.90;;;;;;5105991;28;20428;-73
2022/10/12 03:40:13;;;;;;;13.15;6.63;;;7.20;99.90;;;;;;5097890;28;20020;-74
2022/10/12 03:42:39;;;;;;;17.00;6.60;;;7.20;99.90;;;;;;5112664;28;20418;-73
2022/10/12 03:45:05;;;;;;;17.33;7.00;;;7.20;99.90;;;;;;5112636;28;20050;-73
2022/10/12 03:47:30;;;;;;;13.20;7.18;;;7.20;99.90;;;;;;5111990;28;20048;-73
2022/10/12 03:49:56;;;;;;;17.10;7.30;;;7.20;99.90;;;;;;5113113;28;20433;-73
2022/10/12 03:52:23;;;;;;;15.60;7.18;;;7.20;99.90;;;;;;5112129;28;20024;-73
2022/10/12 03:54:48;;;;;;;11.95;6.68;;;7.20;99.90;;;;;;5112512;28;20028;-73
2022/10/12 03:57:14;;;;;;;14.38;7.03;;;7.20;99.90;;;;;;5112230;28;20035;-73
2022/10/12 03:59:39;;;;;;;16.98;6.75;;;7.20;99.90;;;;;;5110828;28;20023;-73
2022/10/12 04:02:05;;;;;;;15.90;6.68;;;7.20;99.90;;;;;;5101717;28;20055;-73
2022/10/12 04:04:30;;;;;;;14.52;7.32;;;7.20;99.90;;;;;;5111533;28;20553;-73
2022/10/12 04:06:56;;;;;;;13.70;7.25;;;7.20;99.90;;;;;;5112462;28;20027;-73
2022/10/12 04:09:21;;;;;;;17.00;7.55;;;7.20;99.90;;;;;;5112055;28;20477;-73
2022/10/12 04:11:47;;;;;;;16.77;7.85;;;7.20;99.90;;;;;;5111307;28;20023;-73
2022/10/12 04:14:13;;;;;;;17.45;8.25;;;7.20;99.90;;;;;;5104603;28;20506;-73
2022/10/12 04:16:38;;;;;;;13.77;7.60;;;7.20;99.90;;;;;;5112534;28;20051;-74
2022/10/12 04:19:04;;;;;;;15.38;7.80;;;7.10;99.90;;;;;;5112027;28;20077;-74
2022/10/12 04:21:30;;;;;;;15.40;8.68;;;7.10;99.90;;;;;;5111813;28;20112;-74
2022/10/12 04:23:56;;;;;;;23.27;9.20;;;7.10;99.90;;;;;;5107461;28;20020;-73
2022/10/12 04:26:22;;;;;;;16.33;9.10;;;7.10;99.90;;;;;;5100704;28;20077;-74
2022/10/12 04:28:47;;;;;;;20.38;9.50;;;7.10;99.90;;;;;;5108945;28;20019;-74
2022/10/12 04:31:13;;;;;;;19.52;9.48;;;7.10;99.90;;;;;;5110962;28;20076;-74
2022/10/12 04:33:38;;;;;;;18.52;9.40;;;7.10;99.90;;;;;;5101297;28;20058;-73
2022/10/12 04:36:04;;;;;;;20.50;9.07;;;7.00;99.90;;;;;;5093589;28;20019;-73
2022/10/12 04:38:30;;;;;;;20.30;9.32;;;7.00;99.90;;;;;;5111180;28;20027;-74
2022/10/12 04:40:56;;;;;;;18.75;9.95;;;7.00;99.90;;;;;;5111659;28;20023;-74
2022/10/12 04:43:22;;;;;;;18.02;9.60;;;7.00;99.90;;;;;;5111557;28;20020;-73
2022/10/12 04:45:57;;;;;;;20.23;9.35;;;7.00;99.90;;;;;;5099755;28;20024;-74
2022/10/12 04:48:24;;;;;;;19.98;9.27;;;7.00;99.90;;;;;;5105510;28;20086;-74
2022/10/12 04:50:51;;;;;;;18.35;9.48;;;7.00;99.90;;;;;;5100810;28;20042;-73
2022/10/12 04:53:16;;;;;;;16.83;9.20;;;7.00;99.90;;;;;;5092024;28;20024;-74
2022/10/12 04:55:42;;;;;;;18.40;9.15;;;7.00;99.90;;;;;;5110462;28;20246;-73
2022/10/12 04:58:08;;;;;;;18.77;9.82;;;7.00;99.90;;;;;;5110900;28;20239;-74
2022/10/12 05:00:33;;;;;;;14.55;9.20;;;7.00;99.90;;;;;;5109983;28;20024;-73
2022/10/12 05:02:59;;;;;;;19.77;10.73;;;7.00;99.90;;;;;;5086005;28;20553;-73
2022/10/12 05:05:25;;;;;;;17.75;9.20;;;7.00;99.90;;;;;;5107260;28;20120;-73
2022/10/12 05:07:50;;;;;;;19.30;10.07;;;7.00;99.90;;;;;;5102722;28;20039;-74
2022/10/12 05:10:17;;;;;;;13.95;8.68;;;7.00;99.90;;;;;;5105241;28;20012;-73
2022/10/12 05:12:42;;;;;;;16.95;9.52;;;7.00;99.90;;;;;;5105503;28;20020;-73
2022/10/12 05:15:09;;;;;;;16.73;9.50;;;7.00;99.90;;;;;;5106275;28;20395;-73
2022/10/12 05:17:35;;;;;;;18.63;9.98;;;7.00;99.90;;;;;;5104202;28;20073;-74
2022/10/12 05:20:00;;;;;;;20.58;9.85;;;7.00;99.90;;;;;;5105375;28;20441;-73
2022/10/12 05:22:26;;;;;;;15.38;9.52;;;7.00;99.90;;;;;;5101646;27;20069;-74
2022/10/12 05:24:51;;;;;;;17.25;9.60;;;7.00;99.90;;;;;;5105435;28;20019;-73
2022/10/12 05:27:17;;;;;;;22.30;12.60;;;7.00;99.90;;;;;;5108591;28;20459;-74
2022/10/12 05:29:42;;;;;;;19.63;10.55;;;7.00;99.90;;;;;;5110112;28;20026;-73
2022/10/12 05:32:08;;;;;;;17.13;10.02;;;7.00;99.90;;;;;;5107575;28;20020;-73
2022/10/12 05:34:34;;;;;;;16.02;9.52;;;7.00;99.90;;;;;;5109248;28;20024;-72
2022/10/12 05:37:00;;;;;;;22.05;10.32;;;7.00;99.90;;;;;;5105317;28;20106;-73
2022/10/12 05:39:25;;;;;;;20.77;10.45;;;6.90;99.90;;;;;;5095865;28;20032;-73
2022/10/12 05:41:53;;;;;;;18.73;9.68;;;6.90;99.90;;;;;;5098817;28;20076;-73
2022/10/12 05:44:19;;;;;;;21.02;10.13;;;6.90;99.90;;;;;;5099311;28;20020;-73
2022/10/12 05:46:45;;;;;;;16.48;9.73;;;6.90;99.90;;;;;;5108406;28;20114;-73
2022/10/12 05:49:10;;;;;;;17.13;9.77;;;6.90;99.90;;;;;;5106070;28;20098;-73
2022/10/12 05:51:37;;;;;;;20.42;9.40;;;6.90;99.90;;;;;;5103197;28;20023;-73
2022/10/12 05:54:03;;;;;;;16.08;9.38;;;6.90;99.90;;;;;;5105806;28;20084;-78
2022/10/12 05:56:29;;;;;;;16.15;10.00;;;6.80;99.90;;;;;;5106172;28;20398;-72
2022/10/12 05:58:54;;;;;;;18.52;9.23;;;6.80;99.90;;;;;;5104388;28;20024;-74
2022/10/12 06:01:20;;;;;;;17.88;9.25;;;6.80;99.90;;;;;;5106003;28;20381;-74
2022/10/12 06:03:46;;;;;;;17.85;9.23;;;6.80;99.90;;;;;;5110308;28;20027;-75
2022/10/12 06:06:11;;;;;;;19.40;8.95;;;6.80;99.90;;;;;;5105272;28;20067;-74
2022/10/12 06:08:37;;;;;;;15.77;9.00;;;6.70;99.90;;;;;;5108052;28;20023;-74
2022/10/12 06:11:03;;;;;;;16.60;8.77;;;6.70;99.90;;;;;;5096332;28;20024;-74
2022/10/12 06:13:28;;;;;;;17.27;9.13;;;6.70;99.90;;;;;;5109006;28;20016;-74
2022/10/12 06:15:54;;;;;;;14.00;8.20;;;6.70;99.90;;;;;;5104114;28;20387;-74
2022/10/12 06:18:20;;;;;;;16.38;9.27;;;6.70;99.90;;;;;;5108751;28;20108;-74
2022/10/12 06:20:47;;;;;;;14.43;8.57;;;6.70;99.90;;;;;;5110743;28;20046;-75
2022/10/12 06:23:14;;;;;;;16.90;8.77;;;6.70;99.90;;;;;;5105846;28;20028;-74
2022/10/12 06:25:40;;;;;;;14.88;9.20;;;6.70;99.90;;;;;;5103819;28;20107;-73
2022/10/12 06:28:05;;;;;;;13.48;8.38;;;6.70;99.90;;;;;;5100347;28;20107;-73
2022/10/12 06:30:31;;;;;;;18.05;9.00;;;6.70;99.90;;;;;;5101573;28;20454;-73
2022/10/12 06:32:56;;;;;;;14.50;8.80;;;6.70;99.90;;;;;;5103093;28;20437;-73
2022/10/12 06:35:22;;;;;;;16.02;9.27;;;6.70;99.90;;;;;;5105617;28;20024;-73
2022/10/12 06:37:51;;;;;;;14.57;8.85;;;6.70;99.90;;;;;;5092847;28;20111;-73
2022/10/12 06:40:17;;;;;;;19.17;9.45;;;6.70;99.90;;;;;;5095090;28;20019;-73
2022/10/12 06:42:43;;;;;;;16.48;9.55;;;6.70;99.90;;;;;;5094268;28;20424;-73
2022/10/12 06:45:09;;;;;;;15.38;9.48;;;6.70;99.90;;;;;;5104482;28;20358;-73
2022/10/12 06:47:35;;;;;;;14.43;8.75;;;6.80;99.90;;;;;;5099109;28;20101;-74
2022/10/12 06:50:00;;;;;;;18.02;9.48;;;6.80;99.90;;;;;;5095276;28;20475;-73
2022/10/12 06:52:26;;;;;;;16.20;9.15;;;6.80;99.90;;;;;;5097532;28;20026;-74
2022/10/12 06:54:51;;;;;;;17.00;9.73;;;6.80;99.90;;;;;;5104582;28;20027;-73
2022/10/12 06:57:17;;;;;;;16.98;10.05;;;6.90;99.90;;;;;;5093387;28;20043;-74
2022/10/12 06:59:42;;;;;;;19.80;9.57;;;6.90;99.90;;;;;;5098205;28;20028;-73
2022/10/12 07:02:10;;;;;;;17.92;9.98;;;6.90;99.90;;;;;;5102467;28;20023;-73
2022/10/12 07:04:35;;;;;;;16.13;8.90;;;7.00;99.90;;;;;;5104928;28;20020;-73
2022/10/12 07:07:01;;;;;;;19.85;9.25;;;7.00;99.90;;;;;;5107379;28;20031;-75
2022/10/12 07:09:27;;;;;;;15.98;9.40;;;7.00;99.90;;;;;;5108968;28;20357;-74
2022/10/12 07:11:53;;;;;;;16.15;9.13;;;7.00;99.90;;;;;;5113727;28;20035;-74
2022/10/12 07:14:19;;;;;;;17.90;9.65;;;7.10;99.90;;;;;;5107904;28;20024;-73
2022/10/12 07:16:44;;;;;;;18.45;9.80;;;7.10;99.90;;;;;;5116616;28;20024;-74
2022/10/12 07:19:10;;;;;;;17.58;9.48;;;7.10;99.90;;;;;;5112850;28;20024;-74
2022/10/12 07:21:36;;;;;;;21.05;9.73;;;7.10;99.90;;;;;;5095212;28;20020;-76
2022/10/12 07:24:01;;;;;;;18.35;10.25;;;7.10;99.90;;;;;;5112621;28;20081;-73
2022/10/12 07:26:27;;;;;;;17.90;9.88;;;7.10;99.90;;;;;;5091554;28;20093;-73
2022/10/12 07:28:52;;;;;;;22.08;10.63;;;7.10;99.90;;;;;;5105978;28;20100;-73
2022/10/12 07:31:18;;;;;;;23.33;10.63;;;7.10;99.90;;;;;;5103738;28;20058;-73
2022/10/12 07:33:44;;;;;;;16.50;9.65;;;7.20;99.90;;;;;;5113064;28;20471;-73
2022/10/12 07:36:09;;;;;;;15.02;9.55;;;7.20;99.90;;;;;;5112424;28;20035;-74
2022/10/12 07:38:35;;;;;;;20.02;10.18;;;7.20;99.90;;;;;;5110359;28;20053;-73
2022/10/12 07:41:02;;;;;;;20.52;10.15;;;7.20;99.90;;;;;;5100232;28;20781;-73
2022/10/12 07:43:29;;;;;;;19.20;11.07;;;7.20;99.90;;;;;;5098092;28;20543;-73
2022/10/12 07:45:55;;;;;;;18.73;10.40;;;7.30;99.90;;;;;;5112728;28;20036;-73
2022/10/12 07:48:22;;;;;;;18.80;10.88;;;7.30;99.90;;;;;;5099636;28;20044;-73
2022/10/12 07:50:48;;;;;;;22.38;12.57;;;7.40;99.90;;;;;;5097336;28;20018;-74
2022/10/12 07:53:14;;;;;;;26.58;14.05;;;7.50;99.90;;;;;;5101106;28;20020;-73
2022/10/12 07:55:40;;;;;;;26.38;14.70;;;7.60;99.90;;;;;;5105481;28;20039;-73
2022/10/12 07:58:05;;;;;;;23.70;14.40;;;7.70;99.90;;;;;;5107733;28;20476;-73
2022/10/12 08:00:31;;;;;;;26.17;16.38;;;7.80;99.90;;;;;;5110927;28;20073;-73
2022/10/12 08:02:57;;;;;;;34.13;17.40;;;7.90;99.90;;;;;;5106701;28;20028;-73
2022/10/12 08:05:23;;;;;;;33.80;17.67;;;8.10;99.90;;;;;;5102879;28;20023;-73
2022/10/12 08:07:50;;;;;;;33.63;17.75;;;8.20;99.90;;;;;;5111521;28;20028;-73
2022/10/12 08:10:16;;;;;;;36.47;17.25;;;8.40;99.90;;;;;;5091557;28;20035;-73
2022/10/12 08:12:43;;;;;;;38.45;19.38;;;8.50;99.90;;;;;;5110746;28;20020;-74
2022/10/12 08:15:10;;;;;;;36.85;18.75;;;8.60;99.90;;;;;;5091616;28;20450;-73
2022/10/12 08:17:36;;;;;;;39.30;18.95;;;8.80;99.90;;;;;;5106852;28;20024;-73
2022/10/12 08:20:02;;;;;;;35.55;18.52;;;9.00;99.90;;;;;;5110337;28;20922;-73
2022/10/12 08:22:28;;;;;;;39.30;17.92;;;9.10;99.90;;;;;;5112117;28;20034;-73
2022/10/12 08:24:54;;;;;;;35.60;17.77;;;9.20;99.90;;;;;;5112313;28;20099;-73
2022/10/12 08:27:19;;;;;;;34.17;17.80;;;9.40;99.90;;;;;;5110392;28;20027;-73
2022/10/12 08:29:45;;;;;;;35.10;17.40;;;9.50;99.90;;;;;;5111597;28;20499;-71
2022/10/12 08:32:12;;;;;;;40.58;18.45;;;9.70;99.90;;;;;;5112081;28;20024;-72
2022/10/12 08:34:38;;;;;;;38.20;18.38;;;9.80;99.90;;;;;;5109479;27;20077;-72
2022/10/12 08:37:03;;;;;;;35.75;17.30;;;9.90;99.90;;;;;;5110821;28;20016;-71
2022/10/12 08:39:29;;;;;;;33.20;14.95;;;10.10;99.90;;;;;;5111181;28;20476;-71
2022/10/12 08:42:19;;;;;;;31.73;14.55;;;10.20;99.90;;;;;;5110172;28;20030;-72
2022/10/12 08:45:12;;;;;;;30.85;14.80;;;10.30;99.90;;;;;;5110874;28;20024;-71
2022/10/12 08:47:40;;;;;;;32.20;14.80;;;10.50;99.90;;;;;;5103524;28;20052;-73
2022/10/12 08:50:17;;;;;;;30.02;13.50;;;10.60;99.90;;;;;;5107827;28;20028;-73
2022/10/12 08:52:52;;;;;;;28.45;13.02;;;10.70;99.90;;;;;;5108441;28;20027;-72
2022/10/12 08:55:41;;;;;;;24.42;12.75;;;10.90;99.90;;;;;;5105436;28;20023;-72
2022/10/12 08:58:19;;;;;;;28.73;13.95;;;11.00;99.90;;;;;;5105224;28;20064;-72
2022/10/12 09:00:52;;;;;;;32.10;14.52;;;11.10;99.90;;;;;;5105381;28;20024;-72
2022/10/12 09:03:53;;;;;;;36.67;15.07;;;11.20;99.90;;;;;;5109691;28;20091;-73
2022/10/12 09:06:22;;;;;;;32.55;14.70;;;11.30;99.90;;;;;;5108502;28;20020;-72
2022/10/12 09:09:03;;;;;;;34.20;13.98;;;11.50;99.90;;;;;;5107031;28;20028;-72
2022/10/12 09:11:54;;;;;;;25.40;13.57;;;11.70;99.90;;;;;;5105348;28;20023;-72
2022/10/12 09:14:46;;;;;;;29.33;14.07;;;11.80;99.90;;;;;;5106742;28;20055;-72
2022/10/12 09:17:27;;;;;;;34.88;13.35;;;12.00;99.90;;;;;;5104228;28;20148;-72
2022/10/12 09:20:15;;;;;;;24.33;12.07;;;12.20;99.90;;;;;;5102991;28;20162;-72
2022/10/12 09:22:46;;;;;;;21.95;11.43;;;12.30;99.90;;;;;;5106256;28;20031;-72
2022/10/12 09:25:13;;;;;;;30.42;11.52;;;12.40;99.90;;;;;;5104418;28;20077;-73
2022/10/12 09:27:41;;;;;;;29.65;11.55;;;12.60;99.90;;;;;;5109941;28;20061;-72
2022/10/12 09:30:13;;;;;;;24.25;9.15;;;12.80;99.90;;;;;;5102519;28;20032;-73
2022/10/12 09:33:08;;;;;;;21.70;8.50;;;13.00;99.90;;;;;;5109000;28;20023;-73
2022/10/12 09:35:35;;;;;;;26.02;8.38;;;13.10;99.90;;;;;;5108571;28;20101;-74
2022/10/12 09:38:01;;;;;;;23.35;8.73;;;13.20;99.90;;;;;;5108040;28;20380;-72
2022/10/12 09:40:32;;;;;;;27.63;9.13;;;13.30;99.90;;;;;;5108170;28;20088;-72
2022/10/12 09:43:02;;;;;;;20.88;9.15;;;13.40;99.90;;;;;;5105627;28;20161;-73
2022/10/12 09:45:31;;;;;;;27.52;9.75;;;13.50;99.90;;;;;;5103797;28;20054;-72
2022/10/12 09:48:19;;;;;;;21.75;9.27;;;13.60;99.90;;;;;;5108928;28;20066;-72
2022/10/12 09:50:54;;;;;;;25.33;9.18;;;13.80;99.90;;;;;;5107202;28;20426;-72
2022/10/12 09:53:28;;;;;;;24.92;9.30;;;13.90;99.90;;;;;;5107746;28;20023;-73
2022/10/12 09:55:58;;;;;;;24.83;9.57;;;14.00;99.90;;;;;;5106654;28;20023;-74
2022/10/12 09:58:26;;;;;;;22.08;8.65;;;14.10;99.90;;;;;;5078361;28;20095;-73
2022/10/12 10:01:32;;;;;;;16.90;8.13;;;14.20;99.90;;;;;;5106817;28;20871;-72
2022/10/12 10:04:12;;;;;;;;;;;14.30;99.90;;;;;;4984360;28;20038;-72
2022/10/12 10:06:42;;;;;;;24.92;8.20;;;14.40;99.90;;;;;;4983731;28;19959;-72
2022/10/12 10:09:32;;;;;;;19.13;7.55;;;14.60;99.90;;;;;;4982396;28;20041;-73
2022/10/12 10:12:21;;;;;;;20.83;7.25;;;14.70;99.90;;;;;;4986829;28;20049;-73
2022/10/12 10:14:48;;;;;;;24.15;7.28;;;14.80;99.90;;;;;;4968994;28;20101;-73
2022/10/12 10:17:26;;;;;;;21.27;6.85;;;14.90;99.90;;;;;;4980087;28;20046;-72
2022/10/12 10:19:54;;;;;;;20.05;6.78;;;15.00;99.90;;;;;;4984573;28;20145;-73
2022/10/12 10:22:20;;;;;;;26.20;6.80;;;15.00;99.90;;;;;;4979302;28;20101;-74
2022/10/12 10:24:54;;;;;;;19.05;6.13;;;15.10;99.90;;;;;;4984538;28;20162;-73
2022/10/12 10:27:40;;;;;;;21.13;6.38;;;15.10;99.90;;;;;;4983748;28;20019;-73
2022/10/12 10:30:08;;;;;;;22.08;6.20;;;15.00;99.90;;;;;;4974361;28;20043;-72
2022/10/12 10:32:34;;;;;;;17.67;6.30;;;15.00;99.90;;;;;;4975693;28;20109;-73
2022/10/12 10:35:19;;;;;;;16.90;6.43;;;14.90;99.90;;;;;;5055524;28;20130;-73
2022/10/12 10:37:55;;;;;;;21.33;6.30;;;14.90;99.90;;;;;;5104047;28;20388;-73
2022/10/12 10:40:29;;;;;;;23.25;6.38;;;14.90;99.90;;;;;;5084987;28;20028;-73
2022/10/12 10:42:58;;;;;;;21.93;7.13;;;15.10;99.90;;;;;;5108261;28;20463;-75
2022/10/12 10:45:29;;;;;;;17.25;6.80;;;15.10;99.90;;;;;;5109960;28;20038;-75
2022/10/12 10:48:00;;;;;;;28.00;7.53;;;15.20;99.90;;;;;;5110882;27;20044;-74
2022/10/12 10:50:41;;;;;;;18.85;6.35;;;15.20;99.90;;;;;;5111774;28;20418;-74
2022/10/12 10:53:17;;;;;;;15.80;5.47;;;15.30;99.90;;;;;;5111201;27;20341;-75
2022/10/12 10:56:03;;;;;;;14.95;5.88;;;15.40;99.90;;;;;;5111528;27;20043;-73
2022/10/12 10:58:34;;;;;;;18.92;6.80;;;15.50;99.90;;;;;;5106365;28;20028;-74
2022/10/12 11:01:13;;;;;;;16.73;5.38;;;15.60;99.90;;;;;;5110575;28;20103;-73
2022/10/12 11:03:45;;;;;;;16.65;6.03;;;15.60;99.90;;;;;;5110637;28;20028;-73
2022/10/12 11:06:22;;;;;;;18.63;5.95;;;15.60;99.90;;;;;;5108797;28;20446;-73
2022/10/12 11:08:50;;;;;;;18.17;6.07;;;15.60;99.90;;;;;;5110492;28;20111;-74
2022/10/12 11:11:22;;;;;;;19.13;6.07;;;15.50;99.90;;;;;;5108858;28;20357;-74
2022/10/12 11:13:59;;;;;;;18.38;6.32;;;15.40;99.90;;;;;;5099473;28;20020;-73
2022/10/12 11:16:28;;;;;;;18.10;7.00;;;15.40;99.90;;;;;;5094177;28;20707;-74
2022/10/12 11:19:00;;;;;;;20.38;6.88;;;15.30;99.90;;;;;;5112852;28;20046;-73
2022/10/12 11:21:38;;;;;;;19.73;7.68;;;15.30;99.90;;;;;;5108260;28;20020;-73
2022/10/12 11:24:28;;;;;;;22.58;8.10;;;15.30;99.90;;;;;;5105670;28;20038;-73
2022/10/12 11:27:04;;;;;;;15.07;7.50;;;15.30;99.90;;;;;;5108756;28;20475;-73
2022/10/12 11:29:31;;;;;;;21.30;8.40;;;15.30;99.90;;;;;;5113272;28;20450;-73
2022/10/12 11:32:04;;;;;;;21.63;8.68;;;15.20;99.90;;;;;;5100526;28;20035;-72
2022/10/12 11:34:35;;;;;;;18.75;8.50;;;15.20;99.90;;;;;;5096316;28;20022;-73
2022/10/12 11:37:02;;;;;;;26.00;9.00;;;15.30;99.90;;;;;;5107051;28;20024;-73
2022/10/12 11:39:36;;;;;;;22.95;8.82;;;15.40;99.90;;;;;;5112430;28;20027;-73
2022/10/12 11:42:06;;;;;;;24.52;8.15;;;15.50;99.90;;;;;;5106637;28;20020;-73
2022/10/12 11:44:41;;;;;;;17.63;7.05;;;15.70;99.90;;;;;;5101144;28;20038;-73
2022/10/12 11:47:10;;;;;;;22.35;7.85;;;15.90;99.90;;;;;;5109066;28;20083;-73
2022/10/12 11:50:09;;;;;;;20.92;7.00;;;16.10;99.90;;;;;;5108261;28;20043;-73
2022/10/12 11:52:42;;;;;;;23.13;7.47;;;16.20;99.90;;;;;;5105058;28;20106;-73
2022/10/12 11:55:17;;;;;;;17.52;7.28;;;16.10;99.90;;;;;;5104985;28;20042;-74
2022/10/12 11:57:43;;;;;;;24.27;7.80;;;16.10;99.90;;;;;;5108086;28;20173;-74
2022/10/12 12:00:30;;;;;;;21.17;7.50;;;16.10;99.90;;;;;;5099507;28;20036;-73
2022/10/12 12:03:20;;;;;;;21.42;7.03;;;16.10;99.90;;;;;;5107391;28;20035;-72
2022/10/12 12:05:46;;;;;;;18.25;7.35;;;16.10;99.90;;;;;;5106488;28;20059;-73
2022/10/12 12:08:50;;;;;;;18.90;7.28;;;16.10;99.90;;;;;;5111779;28;20451;-73
2022/10/12 12:11:25;;;;;;;20.67;7.75;;;16.20;99.90;;;;;;5057592;28;20101;-73
2022/10/12 12:14:19;;;;;;;15.43;6.90;;;16.20;99.90;;;;;;5104251;28;20031;-73
2022/10/12 12:16:46;;;;;;;15.77;6.65;;;16.20;99.90;;;;;;5099640;28;20020;-73
2022/10/12 12:19:33;;;;;;;21.50;7.18;;;16.20;99.90;;;;;;5111613;28;20028;-73
2022/10/12 12:22:30;;;;;;;20.83;6.88;;;16.20;99.90;;;;;;5112187;28;20476;-74
2022/10/12 12:25:16;;;;;;;19.45;6.35;;;16.10;99.90;;;;;;5110886;28;20019;-73
2022/10/12 12:27:54;;;;;;;20.92;7.32;;;16.10;99.90;;;;;;5100181;28;20012;-73
2022/10/12 12:30:24;;;;;;;19.48;6.97;;;15.90;99.90;;;;;;5106070;28;20031;-74
2022/10/12 12:33:18;;;;;;;22.23;6.97;;;15.80;99.90;;;;;;5100510;28;20383;-73
2022/10/12 12:35:59;;;;;;;23.85;7.60;;;15.80;99.90;;;;;;5098007;28;20076;-73
2022/10/12 12:38:34;;;;;;;21.70;7.75;;;15.80;99.90;;;;;;5110279;28;20055;-75
2022/10/12 12:41:15;;;;;;;22.20;9.40;;;15.80;99.90;;;;;;5099921;28;20024;-73
2022/10/12 12:43:43;;;;;;;24.50;10.68;;;15.80;99.90;;;;;;5108044;28;20483;-73
2022/10/12 12:46:11;;;;;;;28.25;10.18;;;15.80;99.90;;;;;;5106013;28;20023;-74
2022/10/12 12:48:43;;;;;;;29.23;10.07;;;15.80;99.90;;;;;;5101595;28;20074;-73
2022/10/12 12:51:20;;;;;;;24.58;10.68;;;15.80;99.90;;;;;;5109257;28;20012;-73
2022/10/12 12:53:51;;;;;;;29.58;10.75;;;15.80;99.90;;;;;;5105445;28;20015;-74
2022/10/12 12:56:41;;;;;;;29.23;10.90;;;15.80;99.90;;;;;;5104270;28;20031;-74
2022/10/12 12:59:45;;;;;;;30.15;11.02;;;15.90;99.90;;;;;;5111041;28;20080;-75